Terminal Aerodrome Forecast
Issued by NWS

Home | Current Version | Previous Version | Graphics & Text | Print | Product List | Glossary On
Versions: 1 2 3 4 5 6 7 8 9 10 11 12 13 14 15 16 17 18 19 20 21 22 23 24 25 26 27 28 29 30
000
FTUS45 KGGW 270500
TAFOLF
TAF
KOLF 270520Z 2706/2806 07009KT P6SM BKN090
     FM270800 06011KT P6SM -SHRA VCTS BKN070CB
     FM271200 04011KT P6SM SCT100
     FM271500 05015KT P6SM SCT040
     FM272000 05015KT P6SM VCSH BKN045
     FM280200 34014KT 5SM RA OVC040=

USA.gov is the U.S. government's official web portal to all federal, state and local government web resources and services.